Time;durP1;ratioP1;P1;durP2;ratioP2;P2;SDS_P1;SDS_P2;PMS_P1;PMS_P2;Temp;Humidity;BMP_temperature;BMP_pressure;BME280_temperature;BME280_humidity;BME280_pressure;Samples;Min_cycle;Max_cycle;Signal;HPM_P1;HPM_P2
2022/03/08 07:58:58;;;;;;;9.40;8.50;;;;;;;3.20;51.24;102025.78;5323022;27;20404;-69
2022/03/08 08:01:30;;;;;;;11.05;8.70;;;;;;;3.21;49.38;102027.47;5308120;28;20470;-70
2022/03/08 08:04:01;;;;;;;9.48;8.48;;;;;;;3.35;49.70;102028.31;5301899;28;20021;-70
2022/03/08 08:06:32;;;;;;;8.30;7.32;;;;;;;3.52;50.06;102028.69;5286787;28;20033;-70
2022/03/08 08:09:04;;;;;;;8.98;7.43;;;;;;;3.62;49.04;102029.09;5288190;28;20032;-69
2022/03/08 08:11:39;;;;;;;8.48;7.57;;;;;;;3.73;49.77;102030.31;5300447;28;20034;-72
2022/03/08 08:14:13;;;;;;;9.50;6.93;;;;;;;3.83;48.92;102019.72;5312556;28;20023;-73
2022/03/08 08:16:45;;;;;;;9.15;8.13;;;;;;;3.86;47.91;102034.94;5322478;28;20532;-78
2022/03/08 08:19:18;;;;;;;8.10;7.25;;;;;;;3.88;47.49;102028.16;5290005;28;20529;-79
2022/03/08 08:21:49;;;;;;;8.70;7.90;;;;;;;3.98;48.46;102026.88;5280483;28;20417;-76
2022/03/08 08:24:20;;;;;;;8.52;7.60;;;;;;;3.96;47.90;102023.50;5300107;28;20016;-80
2022/03/08 08:26:53;;;;;;;11.65;7.55;;;;;;;3.99;47.52;102023.94;5280222;28;20049;-80
2022/03/08 08:29:24;;;;;;;9.48;7.53;;;;;;;4.08;47.50;102027.25;5279951;28;20048;-79
2022/03/08 08:31:56;;;;;;;8.48;7.40;;;;;;;4.26;48.40;102035.63;5279540;28;20028;-77
2022/03/08 08:34:45;;;;;;;8.93;6.95;;;;;;;4.22;46.39;102028.91;5281253;28;20029;-77
2022/03/08 08:37:16;;;;;;;8.90;6.90;;;;;;;4.33;46.82;102022.69;5297663;28;20479;-77
2022/03/08 08:39:47;;;;;;;7.88;7.13;;;;;;;4.54;48.32;102032.50;5294944;28;20099;-81
2022/03/08 08:42:19;;;;;;;9.30;7.55;;;;;;;4.63;46.42;102024.88;5329790;28;20027;-81
2022/03/08 08:44:50;;;;;;;8.38;7.57;;;;;;;4.66;46.29;102035.41;5309374;28;20032;-81
2022/03/08 08:47:21;;;;;;;7.47;6.70;;;;;;;4.76;46.55;102034.94;5299991;28;20086;-81
2022/03/08 08:49:52;;;;;;;7.95;7.15;;;;;;;4.70;45.60;102031.13;5301809;28;20479;-82
2022/03/08 08:52:24;;;;;;;7.75;6.90;;;;;;;4.75;45.01;102020.31;5291597;28;20374;-81
2022/03/08 08:54:57;;;;;;;9.68;6.63;;;;;;;4.76;44.20;102022.03;5280331;28;20027;-82
2022/03/08 08:57:29;;;;;;;10.60;6.55;;;;;;;4.90;44.86;102020.00;5321336;28;20509;-80
2022/03/08 09:00:01;;;;;;;14.75;6.78;;;;;;;4.98;45.23;102018.88;5322770;28;20030;-82
2022/03/08 09:02:32;;;;;;;9.43;6.80;;;;;;;4.94;44.89;102017.66;5322839;28;20122;-82
2022/03/08 09:05:04;;;;;;;11.50;7.47;;;;;;;5.07;45.73;102024.97;5323282;28;20073;-80
2022/03/08 09:07:35;;;;;;;7.18;6.43;;;;;;;5.09;44.95;102022.81;5304106;28;20033;-79
2022/03/08 09:10:11;;;;;;;10.25;7.40;;;;;;;5.06;43.24;102021.34;5294371;28;20059;-79
2022/03/08 09:12:51;;;;;;;8.82;6.70;;;;;;;5.15;44.33;102031.00;5301759;28;20047;-84
2022/03/08 09:15:23;;;;;;;7.43;6.38;;;;;;;5.18;43.40;102026.97;5303979;28;20102;-85
2022/03/08 09:17:58;;;;;;;12.02;6.85;;;;;;;5.24;44.01;102020.59;5295510;28;20502;-84
2022/03/08 09:20:29;;;;;;;7.18;6.40;;;;;;;5.30;43.19;102016.09;5312949;28;20451;-83
2022/03/08 09:23:02;;;;;;;7.97;6.18;;;;;;;5.32;42.62;102016.72;5330520;28;20024;-83
2022/03/08 09:25:36;;;;;;;11.52;6.30;;;;;;;5.41;42.06;102004.34;5319231;28;20459;-83
2022/03/08 09:28:07;;;;;;;13.32;7.00;;;;;;;5.55;42.10;102000.38;5307997;28;20016;-83
2022/03/08 09:30:39;;;;;;;8.88;6.25;;;;;;;5.76;43.20;101999.09;5292631;28;20044;-82
2022/03/08 09:33:11;;;;;;;10.23;6.80;;;;;;;5.73;42.33;102002.31;5269893;28;20024;-83
2022/03/08 09:35:42;;;;;;;8.65;7.25;;;;;;;5.75;42.01;102002.91;5286077;28;20044;-83
2022/03/08 09:38:14;;;;;;;6.80;6.15;;;;;;;5.81;42.20;101995.66;5300897;28;20031;-84
2022/03/08 09:40:47;;;;;;;13.55;6.68;;;;;;;5.83;41.00;101990.75;5293178;28;20033;-79
2022/03/08 09:43:20;;;;;;;7.05;6.10;;;;;;;5.96;41.43;101989.78;5293827;28;20034;-81
2022/03/08 09:45:51;;;;;;;7.80;6.22;;;;;;;6.01;40.65;101981.69;5307402;28;20031;-78
2022/03/08 09:48:22;;;;;;;7.57;6.72;;;;;;;6.10;40.59;101986.63;5288602;28;20020;-81
2022/03/08 09:51:00;;;;;;;10.85;7.03;;;;;;;6.17;40.02;101980.19;5296547;28;20040;-81
2022/03/08 09:53:32;;;;;;;13.55;7.18;;;;;;;6.19;40.04;101989.06;5299491;28;20479;-84
2022/03/08 09:56:06;;;;;;;9.50;6.40;;;;;;;6.18;40.64;101988.19;5311603;28;20023;-85
2022/03/08 09:58:39;;;;;;;6.93;6.30;;;;;;;6.26;40.16;101989.78;5306530;28;20119;-84
2022/03/08 10:01:12;;;;;;;8.68;6.03;;;;;;;6.34;41.22;101991.38;5293795;28;20040;-80
2022/03/08 10:03:45;;;;;;;47.47;34.92;;;;;;;6.51;42.42;101979.47;5328897;28;20148;-85
2022/03/08 10:06:23;;;;;;;12.73;9.85;;;;;;;6.56;40.48;101976.00;5316079;28;20030;-84
2022/03/08 10:09:11;;;;;;;7.40;6.15;;;;;;;6.53;39.69;101969.06;5305656;28;20048;-84
2022/03/08 10:11:43;;;;;;;6.93;6.20;;;;;;;6.52;40.25;101963.78;5309468;28;20069;-83
2022/03/08 10:14:37;;;;;;;7.50;6.15;;;;;;;6.55;39.87;101963.31;5291405;28;20032;-83
2022/03/08 10:17:29;;;;;;;10.82;7.18;;;;;;;6.64;40.01;101958.28;5292797;28;20021;-85
2022/03/08 10:20:10;;;;;;;6.72;6.00;;;;;;;6.74;40.40;101966.81;5313421;28;20024;-86
2022/03/08 10:22:44;;;;;;;7.75;6.00;;;;;;;6.78;39.80;101972.72;5275616;28;20052;-83
2022/03/08 10:25:25;;;;;;;10.00;6.13;;;;;;;6.84;39.40;101960.75;5321935;28;20459;-80
2022/03/08 10:27:56;;;;;;;9.90;6.50;;;;;;;6.94;40.10;101956.31;5322754;28;20099;-79
2022/03/08 10:30:45;;;;;;;9.33;6.63;;;;;;;7.01;40.29;101969.16;5317917;28;20020;-79
2022/03/08 10:33:20;;;;;;;8.60;6.30;;;;;;;7.09;40.04;101963.28;5319479;28;20381;-76
2022/03/08 10:35:54;;;;;;;6.68;6.07;;;;;;;7.09;38.10;101955.84;5303072;28;20398;-84
2022/03/08 10:38:25;;;;;;;7.20;6.50;;;;;;;7.27;38.88;101959.56;5290839;28;20070;-81
2022/03/08 10:40:56;;;;;;;13.55;8.73;;;;;;;7.37;38.50;101957.88;5300854;28;20421;-78
2022/03/08 10:43:28;;;;;;;13.95;8.68;;;;;;;7.52;38.53;101946.34;5300739;28;20098;-76
2022/03/08 10:46:00;;;;;;;8.95;5.70;;;;;;;7.51;37.95;101947.41;5303519;28;20020;-80
2022/03/08 10:48:36;;;;;;;8.52;6.32;;;;;;;7.58;38.67;101944.53;5303513;28;20093;-78
2022/03/08 10:51:15;;;;;;;7.25;5.65;;;;;;;7.61;38.02;101946.78;5299157;28;20048;-83
2022/03/08 10:53:47;;;;;;;9.02;6.13;;;;;;;7.68;38.45;101935.63;5287879;28;20032;-85
2022/03/08 10:56:23;;;;;;;9.20;5.95;;;;;;;7.76;38.97;101938.84;5292516;28;20032;-85
2022/03/08 10:59:00;;;;;;;6.78;5.95;;;;;;;7.90;38.70;101944.06;5301647;28;20094;-82
2022/03/08 11:01:32;;;;;;;7.90;6.03;;;;;;;7.75;38.06;101942.69;5317716;28;20038;-84
2022/03/08 11:04:03;;;;;;;7.20;6.07;;;;;;;7.84;38.34;101924.63;5313585;28;20040;-81
2022/03/08 11:06:37;;;;;;;8.23;5.80;;;;;;;7.94;38.83;101939.75;5299062;28;20028;-81
2022/03/08 11:09:08;;;;;;;9.30;6.13;;;;;;;7.89;38.34;101931.38;5288210;28;20119;-80
2022/03/08 11:11:40;;;;;;;7.45;6.22;;;;;;;7.88;37.86;101929.69;5290081;28;20040;-81
2022/03/08 11:14:12;;;;;;;8.40;6.22;;;;;;;8.01;38.09;101929.41;5275227;28;20050;-82
2022/03/08 11:16:46;;;;;;;6.20;5.60;;;;;;;8.07;38.13;101929.25;5290597;28;20089;-81
2022/03/08 11:19:18;;;;;;;7.88;5.75;;;;;;;8.12;38.50;101925.75;5288607;28;20021;-83
2022/03/08 11:21:50;;;;;;;9.68;6.20;;;;;;;8.23;37.79;101904.66;5285021;28;20093;-74
2022/03/08 11:24:23;;;;;;;14.63;6.20;;;;;;;8.37;37.33;101916.25;5293586;28;20020;-74
2022/03/08 11:26:55;;;;;;;6.18;5.13;;;;;;;8.48;38.94;101923.66;5299538;28;20039;-72
2022/03/08 11:29:28;;;;;;;10.27;6.03;;;;;;;8.44;36.80;101916.97;5301880;28;20027;-75
2022/03/08 11:32:06;;;;;;;9.07;5.72;;;;;;;8.62;38.33;101913.97;5311151;28;20123;-77
2022/03/08 11:34:47;;;;;;;8.05;5.72;;;;;;;8.67;36.92;101911.28;5303035;28;20074;-76
2022/03/08 11:37:37;;;;;;;8.27;6.07;;;;;;;8.88;38.77;101908.84;5305145;28;20049;-83
2022/03/08 11:40:16;;;;;;;7.65;6.15;;;;;;;8.82;36.26;101904.31;5329823;28;20024;-79
2022/03/08 11:43:13;;;;;;;10.88;5.93;;;;;;;8.85;35.30;101901.06;5316013;28;20051;-84
2022/03/08 11:45:48;;;;;;;8.55;6.15;;;;;;;8.91;36.21;101895.34;5312271;28;20031;-82
2022/03/08 11:48:22;;;;;;;10.13;6.13;;;;;;;9.09;38.64;101885.94;5311249;28;20132;-81
2022/03/08 11:50:53;;;;;;;8.18;5.90;;;;;;;9.10;37.33;101893.16;5310830;28;20031;-82
2022/03/08 11:53:27;;;;;;;8.20;5.68;;;;;;;9.08;36.01;101883.44;5306669;28;20024;-83
2022/03/08 11:55:59;;;;;;;8.32;5.43;;;;;;;9.21;36.89;101876.69;5306156;28;20028;-82
2022/03/08 11:58:45;;;;;;;8.43;5.93;;;;;;;9.41;36.65;101881.66;5304309;28;20048;-81
2022/03/08 12:01:28;;;;;;;6.63;5.90;;;;;;;9.28;34.92;101883.72;5285471;28;20021;-74
2022/03/08 12:04:07;;;;;;;7.63;5.30;;;;;;;9.35;35.55;101880.75;5294665;28;20406;-74
2022/03/08 12:06:40;;;;;;;6.72;5.97;;;;;;;9.34;34.72;101870.78;5292547;28;20044;-72
2022/03/08 12:09:15;;;;;;;8.27;6.45;;;;;;;9.57;35.28;101880.78;5303475;28;20419;-75
2022/03/08 12:11:52;;;;;;;7.60;5.93;;;;;;;9.61;34.73;101870.00;5302923;28;20136;-74
2022/03/08 12:14:30;;;;;;;7.55;5.88;;;;;;;9.63;34.95;101868.66;5294400;28;20123;-73
2022/03/08 12:17:17;;;;;;;8.52;5.68;;;;;;;9.62;34.42;101860.63;5300816;28;20077;-74
2022/03/08 12:19:52;;;;;;;8.38;6.03;;;;;;;9.75;34.53;101865.75;5324865;28;20059;-74
2022/03/08 12:22:24;;;;;;;;;;;;;;;9.95;35.01;101857.66;5299654;28;20379;-73
2022/03/08 12:24:57;;;;;;;13.40;6.32;;;;;;;9.82;33.20;101863.63;5280993;28;20408;-73
2022/03/08 12:27:48;;;;;;;7.53;5.60;;;;;;;10.00;33.63;101871.56;5281856;28;20032;-73
2022/03/08 12:30:38;;;;;;;7.70;6.07;;;;;;;10.06;33.98;101863.31;5286290;28;20016;-73
2022/03/08 12:33:09;;;;;;;7.72;5.68;;;;;;;10.10;34.79;101856.13;5293133;28;20028;-72
2022/03/08 12:35:52;;;;;;;10.75;6.68;;;;;;;10.21;33.59;101853.22;5309016;28;20365;-71
2022/03/08 12:38:26;;;;;;;9.65;5.90;;;;;;;10.22;33.83;101854.88;5301479;28;20036;-72
2022/03/08 12:40:58;;;;;;;7.07;5.40;;;;;;;10.23;33.57;101859.34;5295742;28;20055;-73
2022/03/08 12:43:29;;;;;;;7.75;5.30;;;;;;;10.34;33.64;101857.53;5299691;28;20060;-73
2022/03/08 12:46:01;;;;;;;7.03;5.15;;;;;;;10.35;33.14;101856.41;5306542;28;20016;-72
2022/03/08 12:48:32;;;;;;;17.10;6.10;;;;;;;10.47;33.31;101860.97;5307813;28;20036;-73
2022/03/08 12:51:03;;;;;;;8.40;5.78;;;;;;;10.54;33.11;101853.25;5292326;28;20032;-74
2022/03/08 12:53:35;;;;;;;9.93;6.32;;;;;;;10.67;33.21;101850.03;5285478;28;20031;-73
2022/03/08 12:56:13;;;;;;;9.43;5.90;;;;;;;10.70;33.20;101855.03;5291485;28;20539;-72
2022/03/08 12:58:45;;;;;;;6.65;5.93;;;;;;;10.76;32.86;101847.59;5301268;28;20392;-74
2022/03/08 13:01:19;;;;;;;7.70;4.90;;;;;;;10.86;32.42;101842.09;5323518;28;20077;-74
2022/03/08 13:03:50;;;;;;;6.07;5.35;;;;;;;11.04;32.84;101838.06;5316165;28;20028;-75
2022/03/08 13:06:21;;;;;;;8.85;6.13;;;;;;;11.01;32.02;101839.44;5267584;28;20086;-74
2022/03/08 13:08:52;;;;;;;7.95;5.82;;;;;;;11.12;32.96;101839.47;5305299;28;20038;-74
2022/03/08 13:11:26;;;;;;;8.25;6.45;;;;;;;11.19;32.66;101837.31;5304941;28;20056;-74
2022/03/08 13:14:10;;;;;;;11.02;5.32;;;;;;;11.28;32.60;101839.31;5305373;28;20039;-75
2022/03/08 13:16:42;;;;;;;10.00;5.85;;;;;;;11.13;32.29;101839.22;5305465;28;20024;-75
2022/03/08 13:19:13;;;;;;;8.20;5.22;;;;;;;11.06;31.85;101844.19;5303363;28;20540;-75
2022/03/08 13:21:45;;;;;;;39.38;28.67;;;;;;;11.07;32.22;101832.00;5304617;28;20127;-72
2022/03/08 13:24:16;;;;;;;9.80;6.20;;;;;;;11.15;32.16;101828.69;5297126;28;20037;-73
2022/03/08 13:26:59;;;;;;;6.65;5.65;;;;;;;10.99;31.20;101822.22;5305742;28;20032;-77
2022/03/08 13:29:30;;;;;;;11.70;5.90;;;;;;;11.21;33.71;101838.72;5307038;28;20031;-75
2022/03/08 13:32:07;;;;;;;6.90;5.30;;;;;;;11.55;34.20;101832.75;5306912;28;20031;-74
2022/03/08 13:34:38;;;;;;;6.97;4.93;;;;;;;11.49;31.12;101833.84;5306588;28;20026;-75
2022/03/08 13:37:09;;;;;;;9.77;6.95;;;;;;;11.66;32.55;101826.13;5307134;28;20382;-78
2022/03/08 13:39:44;;;;;;;12.65;6.13;;;;;;;11.67;31.25;101830.56;5306928;28;20022;-76
2022/03/08 13:42:16;;;;;;;8.85;5.85;;;;;;;11.64;30.76;101825.56;5289561;28;20070;-76
2022/03/08 13:44:47;;;;;;;10.23;7.00;;;;;;;11.77;32.31;101823.38;5266935;28;20028;-77
2022/03/08 13:47:19;;;;;;;8.05;6.20;;;;;;;11.76;31.51;101817.00;5285608;28;20407;-74
2022/03/08 13:49:50;;;;;;;9.60;5.82;;;;;;;11.75;31.11;101821.69;5285523;28;20508;-72
2022/03/08 13:52:24;;;;;;;8.70;5.88;;;;;;;11.77;33.03;101823.38;5303388;28;20053;-72
2022/03/08 13:54:56;;;;;;;8.93;6.30;;;;;;;11.81;30.22;101821.69;5304903;28;20036;-74
2022/03/08 13:57:27;;;;;;;9.05;6.30;;;;;;;11.87;34.72;101815.91;5303552;28;20093;-73
2022/03/08 13:59:58;;;;;;;9.95;6.00;;;;;;;11.94;31.06;101818.44;5298700;28;20028;-77
2022/03/08 14:02:35;;;;;;;11.30;6.93;;;;;;;12.01;31.32;101821.78;5295866;28;20168;-75
2022/03/08 14:05:07;;;;;;;10.20;6.57;;;;;;;12.00;31.39;101817.34;5327197;28;20520;-74
2022/03/08 14:07:38;;;;;;;8.40;5.90;;;;;;;11.96;30.63;101807.88;5314605;28;20032;-75
2022/03/08 14:10:10;;;;;;;8.68;6.53;;;;;;;11.78;30.18;101819.47;5304937;28;20032;-73
2022/03/08 14:12:46;;;;;;;8.77;5.55;;;;;;;11.87;30.85;101812.31;5306329;28;20028;-74
2022/03/08 14:15:18;;;;;;;9.77;5.90;;;;;;;11.86;30.84;101818.94;5296924;28;20035;-75
2022/03/08 14:18:08;;;;;;;8.75;6.55;;;;;;;11.97;31.05;101804.00;5297611;28;20084;-76
2022/03/08 14:20:41;;;;;;;8.70;6.32;;;;;;;11.88;30.41;101802.84;5326142;28;20419;-75
2022/03/08 14:23:12;;;;;;;11.10;8.48;;;;;;;11.95;30.54;101804.25;5311479;28;20023;-76
2022/03/08 14:26:04;;;;;;;8.55;5.65;;;;;;;11.99;30.23;101799.00;5307128;28;20052;-74
2022/03/08 14:28:42;;;;;;;8.48;5.80;;;;;;;11.88;30.76;101800.06;5309071;28;20039;-76
2022/03/08 14:31:32;;;;;;;6.68;5.97;;;;;;;12.13;30.78;101799.28;5307603;28;20035;-77
2022/03/08 14:34:06;;;;;;;8.20;6.07;;;;;;;12.04;31.48;101790.66;5297446;28;20047;-80
2022/03/08 14:36:38;;;;;;;6.90;5.38;;;;;;;12.05;31.16;101786.75;5326803;28;20077;-76
2022/03/08 14:39:18;;;;;;;9.07;5.78;;;;;;;12.12;30.26;101792.06;5326027;28;20027;-73
2022/03/08 14:42:08;;;;;;;7.25;5.72;;;;;;;12.14;30.17;101796.22;5284969;28;20515;-77
2022/03/08 14:44:39;;;;;;;25.45;18.13;;;;;;;12.06;29.79;101798.72;5281840;28;20118;-75
2022/03/08 14:47:38;;;;;;;9.32;8.32;;;;;;;12.09;29.82;101793.44;5295408;28;20058;-75
2022/03/08 14:50:15;;;;;;;7.95;6.22;;;;;;;12.19;29.84;101789.81;5292699;28;20024;-74
2022/03/08 14:52:50;;;;;;;7.30;6.53;;;;;;;12.23;30.00;101790.13;5304418;28;20606;-76
2022/03/08 14:55:24;;;;;;;8.82;5.75;;;;;;;12.25;29.86;101783.16;5303357;28;20516;-74
2022/03/08 14:57:56;;;;;;;9.80;6.10;;;;;;;12.22;29.70;101782.84;5304319;28;20059;-74
2022/03/08 15:00:27;;;;;;;7.03;5.18;;;;;;;12.31;30.99;101786.75;5304303;28;20425;-75
2022/03/08 15:02:59;;;;;;;10.02;5.70;;;;;;;12.35;29.66;101787.88;5298122;28;20025;-76
2022/03/08 15:05:32;;;;;;;8.45;6.85;;;;;;;12.48;29.55;101790.09;5298816;28;20024;-77
2022/03/08 15:08:03;;;;;;;9.73;7.45;;;;;;;12.49;29.46;101790.94;5283903;28;20074;-78
2022/03/08 15:10:35;;;;;;;8.23;6.18;;;;;;;12.46;28.90;101802.63;5286569;28;20032;-75
2022/03/08 15:13:06;;;;;;;7.15;5.80;;;;;;;12.49;29.47;101788.97;5282853;28;20060;-73
2022/03/08 15:15:37;;;;;;;8.52;6.15;;;;;;;12.35;29.25;101788.72;5289065;28;20027;-74
2022/03/08 15:18:09;;;;;;;9.07;5.53;;;;;;;12.38;29.04;101790.09;5304487;28;20032;-72
2022/03/08 15:20:40;;;;;;;10.25;5.57;;;;;;;12.22;29.45;101791.22;5302590;28;20079;-73
2022/03/08 15:23:14;;;;;;;6.18;5.40;;;;;;;12.42;29.13;101791.19;5299919;28;20040;-72
2022/03/08 15:25:48;;;;;;;8.57;5.80;;;;;;;12.48;30.69;101789.28;5306284;28;20024;-72
2022/03/08 15:28:20;;;;;;;6.72;5.72;;;;;;;12.22;29.22;101791.22;5299584;28;20028;-75
2022/03/08 15:30:51;;;;;;;5.47;4.97;;;;;;;12.49;29.31;101783.41;5297267;28;20432;-74
2022/03/08 15:33:24;;;;;;;6.28;5.07;;;;;;;12.59;28.83;101794.53;5292207;28;20468;-74
2022/03/08 15:35:56;;;;;;;7.80;5.38;;;;;;;12.56;28.38;101792.31;5322764;28;20028;-73
2022/03/08 15:38:27;;;;;;;8.82;6.25;;;;;;;12.58;28.22;101787.31;5314102;28;20086;-74
2022/03/08 15:40:58;;;;;;;8.57;5.28;;;;;;;12.71;29.14;101798.97;5296043;28;20074;-72
2022/03/08 15:43:29;;;;;;;7.53;4.90;;;;;;;12.50;28.18;101803.72;5304075;28;20445;-71
2022/03/08 15:46:01;;;;;;;6.22;5.63;;;;;;;12.71;28.37;101793.41;5303679;28;20398;-72
2022/03/08 15:48:33;;;;;;;7.43;5.40;;;;;;;12.73;29.00;101793.94;5296766;28;20365;-73
2022/03/08 15:51:04;;;;;;;8.32;5.32;;;;;;;12.66;28.13;101794.25;5302077;28;20036;-70
2022/03/08 15:53:36;;;;;;;10.05;5.07;;;;;;;12.64;27.83;101795.66;5303200;28;20051;-74
2022/03/08 15:56:07;;;;;;;8.25;5.72;;;;;;;12.57;28.37;101795.91;5301167;28;20028;-73
2022/03/08 15:58:42;;;;;;;5.35;4.85;;;;;;;12.59;30.11;101791.75;5295917;28;20068;-71
2022/03/08 16:01:14;;;;;;;7.55;5.55;;;;;;;12.21;28.55;101789.56;5291187;28;20032;-72
2022/03/08 16:03:45;;;;;;;7.45;5.50;;;;;;;12.31;28.18;101792.34;5302831;28;20116;-71
2022/03/08 16:06:19;;;;;;;7.57;5.18;;;;;;;12.20;27.99;101793.47;5282376;28;20107;-73
2022/03/08 16:08:50;;;;;;;9.38;5.35;;;;;;;11.99;28.25;101803.69;5281863;28;20531;-73
2022/03/08 16:11:22;;;;;;;6.00;5.22;;;;;;;11.77;28.71;101795.59;5286212;28;20099;-71
2022/03/08 16:13:53;;;;;;;32.42;26.00;;;;;;;11.80;30.22;101797.81;5292719;28;20082;-73
2022/03/08 16:16:25;;;;;;;6.72;6.05;;;;;;;11.64;28.88;101796.94;5287520;28;20115;-74
2022/03/08 16:18:57;;;;;;;7.28;5.07;;;;;;;11.51;28.58;101795.53;5299087;28;20115;-75
2022/03/08 16:21:28;;;;;;;6.80;5.10;;;;;;;11.66;36.71;101801.13;5306198;28;20379;-74
2022/03/08 16:24:01;;;;;;;6.13;4.82;;;;;;;11.48;29.66;101798.84;5298100;28;20036;-74
2022/03/08 16:26:33;;;;;;;32.35;23.45;;;;;;;11.34;29.06;101798.50;5294262;28;20402;-74
2022/03/08 16:29:04;;;;;;;9.40;7.07;;;;;;;11.31;29.43;101799.06;5325135;28;20032;-75
2022/03/08 16:31:36;;;;;;;8.07;6.40;;;;;;;11.37;30.96;101808.22;5309751;28;20023;-75
2022/03/08 16:34:08;;;;;;;7.97;5.35;;;;;;;11.25;30.09;101806.53;5328925;28;20034;-74
2022/03/08 16:36:39;;;;;;;6.30;5.70;;;;;;;11.27;29.54;101803.47;5327710;28;20019;-71
2022/03/08 16:39:13;;;;;;;6.32;5.30;;;;;;;11.13;28.76;101808.69;5319503;28;20110;-74
2022/03/08 16:41:45;;;;;;;7.28;5.53;;;;;;;11.04;29.73;101811.16;5290059;28;20398;-74
2022/03/08 16:44:18;;;;;;;5.97;5.10;;;;;;;11.04;29.55;101813.06;5285847;28;20021;-74
2022/03/08 16:46:50;;;;;;;6.75;5.80;;;;;;;10.99;30.13;101807.50;5292097;28;20020;-74
2022/03/08 16:49:27;;;;;;;8.32;6.03;;;;;;;10.92;30.26;101813.28;5291561;28;20047;-73
2022/03/08 16:51:58;;;;;;;8.98;5.97;;;;;;;10.86;31.12;101819.91;5285440;28;20017;-73
2022/03/08 16:54:29;;;;;;;9.82;6.53;;;;;;;10.79;30.18;101820.16;5297515;28;20020;-74
2022/03/08 16:57:01;;;;;;;7.57;6.75;;;;;;;10.76;30.61;101814.28;5307237;28;20491;-74
2022/03/08 16:59:35;;;;;;;8.50;5.40;;;;;;;10.77;32.30;101827.06;5306254;28;20081;-74
2022/03/08 17:02:06;;;;;;;9.95;7.05;;;;;;;10.56;30.38;101815.00;5307271;28;20058;-74
2022/03/08 17:04:38;;;;;;;7.68;5.70;;;;;;;10.61;30.59;101817.81;5303973;28;20107;-74
2022/03/08 17:07:10;;;;;;;8.50;5.53;;;;;;;10.56;30.37;101810.28;5310898;28;20020;-77
2022/03/08 17:09:41;;;;;;;9.32;6.63;;;;;;;10.50;31.01;101810.50;5328619;28;20028;-74
2022/03/08 17:12:12;;;;;;;8.35;6.50;;;;;;;10.55;32.19;101813.31;5308848;28;20420;-74
2022/03/08 17:14:43;;;;;;;7.85;6.65;;;;;;;10.43;31.35;101811.56;5313383;28;20081;-74
2022/03/08 17:17:15;;;;;;;9.23;6.93;;;;;;;10.36;31.38;101815.69;5306743;28;20035;-74
2022/03/08 17:19:46;;;;;;;9.43;5.53;;;;;;;10.37;32.45;101811.78;5310151;28;20079;-74
2022/03/08 17:22:21;;;;;;;10.50;6.45;;;;;;;10.39;31.04;101820.69;5318699;28;20020;-82
2022/03/08 17:24:52;;;;;;;6.20;5.47;;;;;;;10.14;31.25;101824.03;5306474;28;20020;-68
2022/03/08 17:27:23;;;;;;;7.25;6.43;;;;;;;10.21;31.80;101827.44;5305170;28;20032;-68
2022/03/08 17:29:55;;;;;;;6.60;5.82;;;;;;;10.24;31.69;101824.13;5285999;28;20028;-70
